sensor_id;sensor_type;location;lat;lon;timestamp;pressure;altitude;pressure_sealevel;temperature
28803;BMP280;15949;55.656;37.422;2023-04-07T00:00:29;100301.69;;;2.98
28803;BMP280;15949;55.656;37.422;2023-04-07T00:05:34;100302.69;;;2.87
28803;BMP280;15949;55.656;37.422;2023-04-07T00:10:40;100305.72;;;2.74
28803;BMP280;15949;55.656;37.422;2023-04-07T00:15:45;100301.84;;;2.67
28803;BMP280;15949;55.656;37.422;2023-04-07T00:20:51;100305.41;;;2.61
28803;BMP280;15949;55.656;37.422;2023-04-07T00:25:57;100312.06;;;2.57
28803;BMP280;15949;55.656;37.422;2023-04-07T00:31:02;100296.38;;;2.53
28803;BMP280;15949;55.656;37.422;2023-04-07T00:36:08;100302.03;;;2.50
28803;BMP280;15949;55.656;37.422;2023-04-07T00:41:14;100311.31;;;2.51
28803;BMP280;15949;55.656;37.422;2023-04-07T00:46:21;100302.53;;;2.52
28803;BMP280;15949;55.656;37.422;2023-04-07T00:51:28;100304.06;;;2.48
28803;BMP280;15949;55.656;37.422;2023-04-07T00:56:34;100298.66;;;2.49
28803;BMP280;15949;55.656;37.422;2023-04-07T01:06:53;100296.28;;;2.33
28803;BMP280;15949;55.656;37.422;2023-04-07T01:12:06;100298.53;;;2.19
28803;BMP280;15949;55.656;37.422;2023-04-07T01:17:14;100300.03;;;2.15
28803;BMP280;15949;55.656;37.422;2023-04-07T01:22:27;100302.84;;;2.14
28803;BMP280;15949;55.656;37.422;2023-04-07T01:27:39;100308.50;;;2.11
28803;BMP280;15949;55.656;37.422;2023-04-07T01:32:50;100307.66;;;2.00
28803;BMP280;15949;55.656;37.422;2023-04-07T01:37:58;100298.66;;;1.97
28803;BMP280;15949;55.656;37.422;2023-04-07T01:43:05;100310.47;;;1.98
28803;BMP280;15949;55.656;37.422;2023-04-07T01:48:11;100299.94;;;2.00
28803;BMP280;15949;55.656;37.422;2023-04-07T01:53:18;100292.91;;;1.90
28803;BMP280;15949;55.656;37.422;2023-04-07T01:58:24;100304.69;;;1.81
28803;BMP280;15949;55.656;37.422;2023-04-07T02:08:46;100299.25;;;1.78
28803;BMP280;15949;55.656;37.422;2023-04-07T02:13:54;100305.69;;;1.75
28803;BMP280;15949;55.656;37.422;2023-04-07T02:19:00;100303.44;;;1.84
28803;BMP280;15949;55.656;37.422;2023-04-07T02:24:10;100307.81;;;1.83
28803;BMP280;15949;55.656;37.422;2023-04-07T02:29:16;100314.09;;;1.71
28803;BMP280;15949;55.656;37.422;2023-04-07T02:34:21;100305.59;;;1.65
28803;BMP280;15949;55.656;37.422;2023-04-07T02:39:27;100308.13;;;1.60
28803;BMP280;15949;55.656;37.422;2023-04-07T02:44:32;100306.75;;;1.52
28803;BMP280;15949;55.656;37.422;2023-04-07T02:49:38;100306.78;;;1.58
28803;BMP280;15949;55.656;37.422;2023-04-07T02:54:44;100315.28;;;1.58
28803;BMP280;15949;55.656;37.422;2023-04-07T02:59:49;100324.69;;;1.47
28803;BMP280;15949;55.656;37.422;2023-04-07T03:04:55;100322.97;;;1.31
28803;BMP280;15949;55.656;37.422;2023-04-07T03:10:01;100327.81;;;1.28
28803;BMP280;15949;55.656;37.422;2023-04-07T03:15:07;100321.56;;;1.19
28803;BMP280;15949;55.656;37.422;2023-04-07T03:20:12;100323.78;;;1.10
28803;BMP280;15949;55.656;37.422;2023-04-07T03:25:18;100315.84;;;1.12
28803;BMP280;15949;55.656;37.422;2023-04-07T03:30:24;100328.13;;;1.10
28803;BMP280;15949;55.656;37.422;2023-04-07T03:35:29;100335.47;;;1.23
28803;BMP280;15949;55.656;37.422;2023-04-07T03:40:35;100335.47;;;1.23
28803;BMP280;15949;55.656;37.422;2023-04-07T03:45:42;100345.75;;;1.23
28803;BMP280;15949;55.656;37.422;2023-04-07T03:50:47;100341.44;;;1.28
28803;BMP280;15949;55.656;37.422;2023-04-07T03:55:53;100344.91;;;1.39
28803;BMP280;15949;55.656;37.422;2023-04-07T04:00:58;100350.56;;;1.41
28803;BMP280;15949;55.656;37.422;2023-04-07T04:06:04;100341.66;;;1.48
28803;BMP280;15949;55.656;37.422;2023-04-07T04:11:10;100350.94;;;1.54
28803;BMP280;15949;55.656;37.422;2023-04-07T04:16:16;100357.34;;;1.52
28803;BMP280;15949;55.656;37.422;2023-04-07T04:21:21;100361.78;;;1.57
28803;BMP280;15949;55.656;37.422;2023-04-07T04:26:27;100362.88;;;1.66
28803;BMP280;15949;55.656;37.422;2023-04-07T04:31:34;100365.78;;;1.74
28803;BMP280;15949;55.656;37.422;2023-04-07T04:36:39;100355.84;;;1.83
28803;BMP280;15949;55.656;37.422;2023-04-07T04:41:45;100357.72;;;1.92
28803;BMP280;15949;55.656;37.422;2023-04-07T04:46:51;100364.75;;;2.02
28803;BMP280;15949;55.656;37.422;2023-04-07T04:51:57;100368.75;;;2.20
28803;BMP280;15949;55.656;37.422;2023-04-07T04:57:02;100374.75;;;2.35
28803;BMP280;15949;55.656;37.422;2023-04-07T05:02:08;100382.84;;;2.54
28803;BMP280;15949;55.656;37.422;2023-04-07T05:07:14;100375.69;;;2.66
28803;BMP280;15949;55.656;37.422;2023-04-07T05:12:20;100385.06;;;2.82
28803;BMP280;15949;55.656;37.422;2023-04-07T05:17:26;100387.94;;;2.96
28803;BMP280;15949;55.656;37.422;2023-04-07T05:22:31;100392.88;;;3.13
28803;BMP280;15949;55.656;37.422;2023-04-07T05:27:37;100394.19;;;3.15
28803;BMP280;15949;55.656;37.422;2023-04-07T05:32:42;100396.00;;;3.25
28803;BMP280;15949;55.656;37.422;2023-04-07T05:37:48;100396.31;;;3.48
28803;BMP280;15949;55.656;37.422;2023-04-07T05:42:53;100396.34;;;3.53
28803;BMP280;15949;55.656;37.422;2023-04-07T05:47:59;100396.34;;;3.79
28803;BMP280;15949;55.656;37.422;2023-04-07T05:53:05;100409.53;;;3.82
28803;BMP280;15949;55.656;37.422;2023-04-07T05:58:11;100406.94;;;3.92
28803;BMP280;15949;55.656;37.422;2023-04-07T06:03:16;100400.00;;;4.08
28803;BMP280;15949;55.656;37.422;2023-04-07T06:08:23;100412.59;;;4.40
28803;BMP280;15949;55.656;37.422;2023-04-07T06:13:28;100403.22;;;4.59
28803;BMP280;15949;55.656;37.422;2023-04-07T06:18:34;100418.66;;;4.84
28803;BMP280;15949;55.656;37.422;2023-04-07T06:23:39;100417.59;;;4.90
28803;BMP280;15949;55.656;37.422;2023-04-07T06:28:45;100419.84;;;5.12
28803;BMP280;15949;55.656;37.422;2023-04-07T06:33:51;100416.81;;;5.44
28803;BMP280;15949;55.656;37.422;2023-04-07T06:38:56;100422.91;;;5.58
28803;BMP280;15949;55.656;37.422;2023-04-07T06:44:02;100415.28;;;5.72
28803;BMP280;15949;55.656;37.422;2023-04-07T06:49:07;100422.91;;;5.92
28803;BMP280;15949;55.656;37.422;2023-04-07T06:54:13;100432.91;;;5.98
28803;BMP280;15949;55.656;37.422;2023-04-07T06:59:19;100418.00;;;6.19
28803;BMP280;15949;55.656;37.422;2023-04-07T07:04:25;100421.59;;;6.47
28803;BMP280;15949;55.656;37.422;2023-04-07T07:09:31;100426.53;;;6.67
28803;BMP280;15949;55.656;37.422;2023-04-07T07:14:37;100428.25;;;6.76
28803;BMP280;15949;55.656;37.422;2023-04-07T07:19:42;100422.16;;;6.86
28803;BMP280;15949;55.656;37.422;2023-04-07T07:24:48;100423.38;;;7.12
28803;BMP280;15949;55.656;37.422;2023-04-07T07:29:53;100417.22;;;7.27
28803;BMP280;15949;55.656;37.422;2023-04-07T07:34:59;100424.19;;;7.64
28803;BMP280;15949;55.656;37.422;2023-04-07T07:40:05;100431.97;;;7.64
28803;BMP280;15949;55.656;37.422;2023-04-07T07:45:10;100423.56;;;7.85
28803;BMP280;15949;55.656;37.422;2023-04-07T07:50:18;100431.00;;;7.73
28803;BMP280;15949;55.656;37.422;2023-04-07T07:55:23;100429.88;;;7.79
28803;BMP280;15949;55.656;37.422;2023-04-07T08:00:29;100438.25;;;8.22
28803;BMP280;15949;55.656;37.422;2023-04-07T08:05:35;100428.59;;;8.36
28803;BMP280;15949;55.656;37.422;2023-04-07T08:10:41;100427.22;;;8.80
28803;BMP280;15949;55.656;37.422;2023-04-07T08:15:46;100418.47;;;9.12
28803;BMP280;15949;55.656;37.422;2023-04-07T08:20:52;100415.44;;;9.40
28803;BMP280;15949;55.656;37.422;2023-04-07T08:25:57;100414.19;;;9.60
28803;BMP280;15949;55.656;37.422;2023-04-07T08:31:03;100406.47;;;9.77
28803;BMP280;15949;55.656;37.422;2023-04-07T08:36:09;100405.34;;;9.70
28803;BMP280;15949;55.656;37.422;2023-04-07T08:41:25;100404.66;;;9.86
28803;BMP280;15949;55.656;37.422;2023-04-07T08:46:32;100408.97;;;9.91
28803;BMP280;15949;55.656;37.422;2023-04-07T08:51:44;100401.34;;;10.03
28803;BMP280;15949;55.656;37.422;2023-04-07T08:56:53;100404.22;;;9.93
28803;BMP280;15949;55.656;37.422;2023-04-07T09:01:59;100404.84;;;9.98
28803;BMP280;15949;55.656;37.422;2023-04-07T09:07:05;100403.88;;;10.34
28803;BMP280;15949;55.656;37.422;2023-04-07T09:12:10;100399.00;;;10.58
28803;BMP280;15949;55.656;37.422;2023-04-07T09:17:16;100395.34;;;10.76
28803;BMP280;15949;55.656;37.422;2023-04-07T09:22:40;100402.38;;;10.93
28803;BMP280;15949;55.656;37.422;2023-04-07T09:28:02;100394.25;;;10.94
28803;BMP280;15949;55.656;37.422;2023-04-07T09:33:15;100388.56;;;10.83
28803;BMP280;15949;55.656;37.422;2023-04-07T09:38:21;100391.41;;;11.33
28803;BMP280;15949;55.656;37.422;2023-04-07T09:43:26;100401.31;;;11.57
28803;BMP280;15949;55.656;37.422;2023-04-07T09:48:32;100387.25;;;11.49
28803;BMP280;15949;55.656;37.422;2023-04-07T09:53:51;100385.94;;;11.18
28803;BMP280;15949;55.656;37.422;2023-04-07T09:58:57;100387.59;;;11.31
28803;BMP280;15949;55.656;37.422;2023-04-07T10:04:04;100389.69;;;11.84
28803;BMP280;15949;55.656;37.422;2023-04-07T10:09:10;100388.44;;;11.90
28803;BMP280;15949;55.656;37.422;2023-04-07T10:14:17;100393.56;;;12.28
28803;BMP280;15949;55.656;37.422;2023-04-07T10:19:23;100391.09;;;11.81
28803;BMP280;15949;55.656;37.422;2023-04-07T10:29:48;100402.09;;;12.78
28803;BMP280;15949;55.656;37.422;2023-04-07T10:34:55;100395.56;;;12.51
28803;BMP280;15949;55.656;37.422;2023-04-07T10:56:10;100394.59;;;12.76
28803;BMP280;15949;55.656;37.422;2023-04-07T11:01:16;100407.47;;;12.61
28803;BMP280;15949;55.656;37.422;2023-04-07T11:06:23;100399.56;;;12.07
28803;BMP280;15949;55.656;37.422;2023-04-07T11:11:37;100403.25;;;11.77
28803;BMP280;15949;55.656;37.422;2023-04-07T11:16:43;100404.69;;;11.95
28803;BMP280;15949;55.656;37.422;2023-04-07T11:21:50;100393.34;;;11.91
28803;BMP280;15949;55.656;37.422;2023-04-07T11:26:55;100396.09;;;12.15
28803;BMP280;15949;55.656;37.422;2023-04-07T11:32:01;100394.63;;;11.85
28803;BMP280;15949;55.656;37.422;2023-04-07T11:37:23;100393.25;;;11.79
28803;BMP280;15949;55.656;37.422;2023-04-07T11:42:34;100382.03;;;11.79
28803;BMP280;15949;55.656;37.422;2023-04-07T11:47:40;100382.75;;;12.17
28803;BMP280;15949;55.656;37.422;2023-04-07T11:52:47;100372.28;;;12.38
28803;BMP280;15949;55.656;37.422;2023-04-07T11:57:53;100385.09;;;12.51
28803;BMP280;15949;55.656;37.422;2023-04-07T12:03:08;100391.41;;;12.71
28803;BMP280;15949;55.656;37.422;2023-04-07T12:08:15;100384.06;;;12.97
28803;BMP280;15949;55.656;37.422;2023-04-07T12:13:20;100388.66;;;13.00
28803;BMP280;15949;55.656;37.422;2023-04-07T12:18:27;100384.34;;;12.71
28803;BMP280;15949;55.656;37.422;2023-04-07T12:23:32;100393.78;;;12.97
28803;BMP280;15949;55.656;37.422;2023-04-07T12:28:38;100388.72;;;13.48
28803;BMP280;15949;55.656;37.422;2023-04-07T12:33:44;100391.75;;;13.75
28803;BMP280;15949;55.656;37.422;2023-04-07T12:38:50;100387.13;;;13.68
28803;BMP280;15949;55.656;37.422;2023-04-07T12:43:55;100393.75;;;13.41
28803;BMP280;15949;55.656;37.422;2023-04-07T12:49:01;100385.63;;;13.10
28803;BMP280;15949;55.656;37.422;2023-04-07T12:54:07;100373.91;;;12.96
28803;BMP280;15949;55.656;37.422;2023-04-07T12:59:12;100376.63;;;12.34
28803;BMP280;15949;55.656;37.422;2023-04-07T13:04:18;100383.50;;;12.59
28803;BMP280;15949;55.656;37.422;2023-04-07T13:09:24;100381.50;;;13.09
28803;BMP280;15949;55.656;37.422;2023-04-07T13:14:29;100367.31;;;13.34
28803;BMP280;15949;55.656;37.422;2023-04-07T13:19:35;100371.38;;;13.20
28803;BMP280;15949;55.656;37.422;2023-04-07T13:24:41;100381.28;;;13.14
28803;BMP280;15949;55.656;37.422;2023-04-07T13:29:46;100384.09;;;13.21
28803;BMP280;15949;55.656;37.422;2023-04-07T13:34:52;100378.25;;;13.48
28803;BMP280;15949;55.656;37.422;2023-04-07T13:39:57;100380.66;;;13.29
28803;BMP280;15949;55.656;37.422;2023-04-07T13:45:03;100371.13;;;13.13
28803;BMP280;15949;55.656;37.422;2023-04-07T13:50:09;100385.06;;;12.93
28803;BMP280;15949;55.656;37.422;2023-04-07T13:55:15;100375.09;;;12.53
28803;BMP280;15949;55.656;37.422;2023-04-07T14:00:21;100375.41;;;12.52
28803;BMP280;15949;55.656;37.422;2023-04-07T14:05:26;100386.56;;;12.40
28803;BMP280;15949;55.656;37.422;2023-04-07T14:10:32;100383.06;;;12.57
28803;BMP280;15949;55.656;37.422;2023-04-07T14:15:38;100377.97;;;12.40
28803;BMP280;15949;55.656;37.422;2023-04-07T14:20:43;100382.44;;;11.89
28803;BMP280;15949;55.656;37.422;2023-04-07T14:25:49;100374.97;;;11.79
28803;BMP280;15949;55.656;37.422;2023-04-07T14:30:55;100374.50;;;11.86
28803;BMP280;15949;55.656;37.422;2023-04-07T14:36:00;100378.81;;;11.73
28803;BMP280;15949;55.656;37.422;2023-04-07T14:41:06;100381.66;;;11.51
28803;BMP280;15949;55.656;37.422;2023-04-07T14:46:12;100376.28;;;11.10
28803;BMP280;15949;55.656;37.422;2023-04-07T14:51:20;100374.03;;;10.74
28803;BMP280;15949;55.656;37.422;2023-04-07T14:56:26;100375.22;;;10.42
28803;BMP280;15949;55.656;37.422;2023-04-07T15:01:32;100367.22;;;10.21
28803;BMP280;15949;55.656;37.422;2023-04-07T15:06:41;100373.16;;;10.05
28803;BMP280;15949;55.656;37.422;2023-04-07T15:11:49;100368.88;;;10.09
28803;BMP280;15949;55.656;37.422;2023-04-07T15:16:55;100377.28;;;9.97
28803;BMP280;15949;55.656;37.422;2023-04-07T15:22:00;100380.38;;;9.69
28803;BMP280;15949;55.656;37.422;2023-04-07T15:27:06;100386.69;;;9.76
28803;BMP280;15949;55.656;37.422;2023-04-07T15:32:12;100382.44;;;9.58
28803;BMP280;15949;55.656;37.422;2023-04-07T15:37:17;100388.34;;;9.41
28803;BMP280;15949;55.656;37.422;2023-04-07T15:42:23;100384.72;;;9.20
28803;BMP280;15949;55.656;37.422;2023-04-07T15:47:29;100391.31;;;9.04
28803;BMP280;15949;55.656;37.422;2023-04-07T15:52:34;100398.03;;;8.83
28803;BMP280;15949;55.656;37.422;2023-04-07T15:57:40;100398.47;;;8.63
28803;BMP280;15949;55.656;37.422;2023-04-07T16:02:46;100407.63;;;8.46
28803;BMP280;15949;55.656;37.422;2023-04-07T16:07:51;100411.88;;;8.29
28803;BMP280;15949;55.656;37.422;2023-04-07T16:12:57;100417.22;;;8.19
28803;BMP280;15949;55.656;37.422;2023-04-07T16:18:06;100417.81;;;8.02
28803;BMP280;15949;55.656;37.422;2023-04-07T16:23:12;100424.13;;;7.82
28803;BMP280;15949;55.656;37.422;2023-04-07T16:28:18;100434.84;;;7.62
28803;BMP280;15949;55.656;37.422;2023-04-07T16:33:23;100435.91;;;7.43
28803;BMP280;15949;55.656;37.422;2023-04-07T16:38:29;100435.69;;;7.39
28803;BMP280;15949;55.656;37.422;2023-04-07T16:43:35;100443.09;;;7.51
28803;BMP280;15949;55.656;37.422;2023-04-07T16:48:40;100446.00;;;7.44
28803;BMP280;15949;55.656;37.422;2023-04-07T16:53:46;100448.47;;;7.36
28803;BMP280;15949;55.656;37.422;2023-04-07T16:58:52;100448.13;;;7.23
28803;BMP280;15949;55.656;37.422;2023-04-07T17:03:57;100453.19;;;7.15
28803;BMP280;15949;55.656;37.422;2023-04-07T17:09:03;100459.63;;;7.17
28803;BMP280;15949;55.656;37.422;2023-04-07T17:14:09;100465.97;;;7.06
28803;BMP280;15949;55.656;37.422;2023-04-07T17:19:14;100474.91;;;7.00
28803;BMP280;15949;55.656;37.422;2023-04-07T17:24:20;100475.19;;;6.94
28803;BMP280;15949;55.656;37.422;2023-04-07T17:29:26;100481.13;;;6.99
28803;BMP280;15949;55.656;37.422;2023-04-07T17:34:34;100489.00;;;6.89
28803;BMP280;15949;55.656;37.422;2023-04-07T17:39:40;100479.00;;;6.83
28803;BMP280;15949;55.656;37.422;2023-04-07T17:44:45;100486.66;;;6.69
28803;BMP280;15949;55.656;37.422;2023-04-07T17:49:51;100493.31;;;6.51
28803;BMP280;15949;55.656;37.422;2023-04-07T17:54:57;100502.78;;;6.32
28803;BMP280;15949;55.656;37.422;2023-04-07T18:00:07;100509.88;;;6.21
28803;BMP280;15949;55.656;37.422;2023-04-07T18:05:13;100503.16;;;6.20
28803;BMP280;15949;55.656;37.422;2023-04-07T18:10:18;100509.97;;;6.11
28803;BMP280;15949;55.656;37.422;2023-04-07T18:15:24;100507.94;;;6.03
28803;BMP280;15949;55.656;37.422;2023-04-07T18:20:30;100511.84;;;6.01
28803;BMP280;15949;55.656;37.422;2023-04-07T18:25:37;100525.28;;;6.03
28803;BMP280;15949;55.656;37.422;2023-04-07T18:30:42;100520.38;;;6.06
28803;BMP280;15949;55.656;37.422;2023-04-07T18:35:48;100528.66;;;6.03
28803;BMP280;15949;55.656;37.422;2023-04-07T18:40:54;100524.84;;;5.91
28803;BMP280;15949;55.656;37.422;2023-04-07T18:45:59;100529.06;;;5.82
28803;BMP280;15949;55.656;37.422;2023-04-07T18:51:05;100527.03;;;5.74
28803;BMP280;15949;55.656;37.422;2023-04-07T18:56:11;100531.69;;;5.72
28803;BMP280;15949;55.656;37.422;2023-04-07T19:01:17;100535.63;;;5.59
28803;BMP280;15949;55.656;37.422;2023-04-07T19:06:22;100533.66;;;5.46
28803;BMP280;15949;55.656;37.422;2023-04-07T19:11:28;100533.91;;;5.44
28803;BMP280;15949;55.656;37.422;2023-04-07T19:16:34;100527.03;;;5.25
28803;BMP280;15949;55.656;37.422;2023-04-07T19:21:40;100537.41;;;5.15
28803;BMP280;15949;55.656;37.422;2023-04-07T19:26:45;100541.00;;;5.08
28803;BMP280;15949;55.656;37.422;2023-04-07T19:31:51;100537.41;;;4.99
28803;BMP280;15949;55.656;37.422;2023-04-07T19:36:58;100535.91;;;5.03
28803;BMP280;15949;55.656;37.422;2023-04-07T19:42:04;100536.41;;;4.90
28803;BMP280;15949;55.656;37.422;2023-04-07T19:47:09;100531.00;;;4.82
28803;BMP280;15949;55.656;37.422;2023-04-07T19:52:16;100526.63;;;4.77
28803;BMP280;15949;55.656;37.422;2023-04-07T19:57:22;100533.09;;;4.75
28803;BMP280;15949;55.656;37.422;2023-04-07T20:02:27;100535.66;;;4.75
28803;BMP280;15949;55.656;37.422;2023-04-07T20:07:33;100533.59;;;4.72
28803;BMP280;15949;55.656;37.422;2023-04-07T20:12:38;100539.81;;;4.60
28803;BMP280;15949;55.656;37.422;2023-04-07T20:17:44;100547.03;;;4.64
28803;BMP280;15949;55.656;37.422;2023-04-07T20:22:52;100544.72;;;4.67
28803;BMP280;15949;55.656;37.422;2023-04-07T20:27:57;100547.31;;;4.62
28803;BMP280;15949;55.656;37.422;2023-04-07T20:33:03;100537.00;;;4.57
28803;BMP280;15949;55.656;37.422;2023-04-07T20:38:08;100546.78;;;4.55
28803;BMP280;15949;55.656;37.422;2023-04-07T20:43:14;100543.97;;;4.56
28803;BMP280;15949;55.656;37.422;2023-04-07T20:48:22;100547.56;;;4.60
28803;BMP280;15949;55.656;37.422;2023-04-07T20:53:28;100541.13;;;4.63
28803;BMP280;15949;55.656;37.422;2023-04-07T20:58:33;100549.38;;;4.65
28803;BMP280;15949;55.656;37.422;2023-04-07T21:03:39;100551.97;;;4.70
28803;BMP280;15949;55.656;37.422;2023-04-07T21:08:45;100553.00;;;4.69
28803;BMP280;15949;55.656;37.422;2023-04-07T21:13:50;100550.41;;;4.69
28803;BMP280;15949;55.656;37.422;2023-04-07T21:18:56;100544.22;;;4.70
28803;BMP280;15949;55.656;37.422;2023-04-07T21:24:01;100551.16;;;4.65
28803;BMP280;15949;55.656;37.422;2023-04-07T21:29:07;100541.91;;;4.58
28803;BMP280;15949;55.656;37.422;2023-04-07T21:34:13;100543.44;;;4.54
28803;BMP280;15949;55.656;37.422;2023-04-07T21:39:18;100540.34;;;4.52
28803;BMP280;15949;55.656;37.422;2023-04-07T21:44:25;100553.00;;;4.44
28803;BMP280;15949;55.656;37.422;2023-04-07T21:49:30;100555.56;;;4.39
28803;BMP280;15949;55.656;37.422;2023-04-07T21:54:36;100554.00;;;4.38
28803;BMP280;15949;55.656;37.422;2023-04-07T21:59:42;100554.78;;;4.38
28803;BMP280;15949;55.656;37.422;2023-04-07T22:04:47;100555.84;;;4.22
28803;BMP280;15949;55.656;37.422;2023-04-07T22:09:53;100555.28;;;4.15
28803;BMP280;15949;55.656;37.422;2023-04-07T22:14:59;100555.28;;;4.10
28803;BMP280;15949;55.656;37.422;2023-04-07T22:20:06;100561.97;;;4.11
28803;BMP280;15949;55.656;37.422;2023-04-07T22:25:12;100556.00;;;4.00
28803;BMP280;15949;55.656;37.422;2023-04-07T22:30:18;100553.44;;;3.90
28803;BMP280;15949;55.656;37.422;2023-04-07T22:35:24;100550.81;;;3.85
28803;BMP280;15949;55.656;37.422;2023-04-07T22:40:29;100551.59;;;3.86
28803;BMP280;15949;55.656;37.422;2023-04-07T22:45:35;100551.34;;;3.77
28803;BMP280;15949;55.656;37.422;2023-04-07T22:50:40;100547.72;;;3.73
28803;BMP280;15949;55.656;37.422;2023-04-07T22:55:46;100544.34;;;3.68
28803;BMP280;15949;55.656;37.422;2023-04-07T23:00:52;100544.56;;;3.61
28803;BMP280;15949;55.656;37.422;2023-04-07T23:05:57;100546.06;;;3.52
28803;BMP280;15949;55.656;37.422;2023-04-07T23:11:08;100551.72;;;3.44
28803;BMP280;15949;55.656;37.422;2023-04-07T23:16:14;100541.09;;;3.35
28803;BMP280;15949;55.656;37.422;2023-04-07T23:21:20;100546.72;;;3.22
28803;BMP280;15949;55.656;37.422;2023-04-07T23:26:26;100541.78;;;3.16
28803;BMP280;15949;55.656;37.422;2023-04-07T23:31:31;100546.41;;;3.14
28803;BMP280;15949;55.656;37.422;2023-04-07T23:36:37;100542.78;;;3.10
28803;BMP280;15949;55.656;37.422;2023-04-07T23:41:43;100538.59;;;3.03
28803;BMP280;15949;55.656;37.422;2023-04-07T23:46:49;100535.72;;;2.95
28803;BMP280;15949;55.656;37.422;2023-04-07T23:51:55;100541.13;;;2.93
28803;BMP280;15949;55.656;37.422;2023-04-07T23:57:00;100542.16;;;2.92
